EDT,Max TemperatureF,Mean TemperatureF,Min TemperatureF,Max Dew PointF,MeanDew PointF,Min DewpointF,Max Humidity, Mean Humidity, Min Humidity, Max Sea Level PressureIn, Mean Sea Level PressureIn, Min Sea Level PressureIn, Max VisibilityMiles, Mean VisibilityMiles, Min VisibilityMiles, Max Wind SpeedMPH, Mean Wind SpeedMPH, Max Gust SpeedMPH,PrecipitationIn, CloudCover, Events, WindDirDegrees
2012-10-1,62,52,42,46,44,41,93,65,48,29.97,29.92,29.86,10,10,7,5,1,,0.00,2,Rain,132
2012-10-2,69,63,57,64,61,54,94,87,83,29.87,29.85,29.82,10,7,2,8,4,,0.00,8,Rain,128
2012-10-3,73,68,64,63,58,54,88,69,53,30.14,30.08,30.01,10,10,10,9,6,,0.00,4,,219
2012-10-4,73,65,57,54,50,46,88,56,38,30.20,30.17,30.14,10,10,10,13,6,17,0.00,3,,225
2012-10-5,73,65,57,55,54,52,82,61,50,30.12,30.04,29.93,10,10,10,9,6,,0.00,5,,223
2012-10-6,57,50,44,43,36,30,93,63,41,30.08,30.01,29.95,10,10,7,14,7,21,0.00,5,,283
2012-10-7,46,44,39,37,36,34,87,74,62,30.15,30.10,30.06,10,10,7,8,3,,0.00,7,Rain,259
2012-10-8,50,41,32,39,34,30,100,76,54,30.25,30.22,30.19,10,7,0,6,2,,0.00,5,Fog,168
2012-10-9,59,46,32,43,37,30,93,65,42,30.20,30.11,30.02,10,8,0,9,3,,0.00,3,Fog,182
2012-10-10,53,48,42,43,36,28,87,66,41,30.07,29.96,29.92,10,10,5,15,10,25,0.00,7,Rain,250
2012-10-11,57,45,33,36,28,25,87,48,29,30.28,30.21,30.13,10,10,10,14,7,18,0.00,1,,218
2012-10-12,51,46,41,37,30,23,81,54,33,30.40,30.33,30.20,10,10,10,13,8,18,0.00,4,Rain,345
2012-10-13,64,48,32,41,32,25,75,50,39,30.38,30.26,30.10,10,10,10,9,4,,0.00,1,,154
2012-10-14,75,67,59,52,50,48,67,52,41,30.04,29.92,29.74,10,10,10,18,12,26,0.00,5,,194
2012-10-15,73,60,48,61,46,41,88,74,59,29.87,29.80,29.72,10,10,10,12,8,20,0.00,8,Rain,264
2012-10-16,57,50,44,39,37,36,81,62,44,29.98,29.93,29.88,10,10,10,8,3,,0.00,5,,238
2012-10-17,71,56,41,43,41,37,87,55,33,29.90,29.83,29.71,10,10,10,12,7,18,0.00,0,,146
2012-10-18,66,58,48,46,43,39,87,66,40,29.82,29.71,29.66,10,10,7,16,10,24,0.00,6,Rain,165
2012-10-19,66,55,44,48,38,30,94,57,28,29.74,29.67,29.61,10,8,0,12,8,23,0.00,6,Fog,170
2012-10-20,51,48,44,43,39,36,87,72,54,29.87,29.78,29.72,10,10,7,14,9,21,0.00,8,Rain,233
2012-10-21,59,50,42,39,35,32,81,55,38,30.13,30.10,30.06,10,10,10,10,5,,0.00,3,,261
2012-10-22,73,57,41,46,43,37,87,50,33,30.18,30.14,30.09,10,10,7,9,4,,0.00,2,,186
2012-10-23,77,68,60,48,46,43,63,42,32,30.07,30.04,30.02,10,10,10,14,8,24,0.00,5,,231
2012-10-24,78,69,60,50,48,46,63,48,34,30.15,30.10,30.06,10,10,10,10,5,,0.00,3,,207
2012-10-25,82,68,55,48,43,37,77,40,21,30.13,30.06,30.02,10,10,10,13,5,16,0.00,0,,175
2012-10-26,73,62,51,52,49,46,82,64,43,30.10,30.07,30.04,10,10,10,13,7,22,0.00,5,,305
2012-10-27,48,46,44,45,44,43,93,89,87,30.03,30.00,29.97,10,9,7,12,8,18,0.00,8,Rain,342
2012-10-28,42,42,41,39,39,39,93,88,87,29.97,29.92,29.87,10,8,3,13,10,24,0.00,8,Rain,360
2012-10-29,41,41,39,37,37,36,87,87,87,29.77,29.61,29.37,10,8,1,25,13,40,0.00,8,Rain,338
2012-10-30,46,44,41,43,40,37,93,89,81,29.34,29.17,29.02,10,9,7,15,7,24,0.00,8,Rain,359
2012-10-31,46,40,35,36,35,34,93,87,62,29.62,29.52,29.43,10,6,3,16,12,23,0.00,8,Rain-Snow,251